Edwards Creek Valley, Nevada Weather observations

Data are for observation ending at time listed.
 Day   Time    Ave.   Ave.  Ave.  Vector   Max.   Stn.    Total    Solar   Ave.  
  of    of     Air    Rel.  Wind   Wind    Wind   Baro.  Precip.   Rad.    Soil  
Year   Day     Temp.  Hum.  Speed  Dir.    Gust   Pres.                    Temp. 
2015   (PST)    F      %     mph   deg.    mph     mb.     in.     W/m2     F   
------------------------------------------------------------------------------
  89   18:30   56.9    11    4.6   165      5.6    845     0.00       0     67.4
  89   18:40   55.1    12    4.5   166      5.6    845     0.00       0     67.0
  89   18:50   54.0    12    5.2   153      6.3    844     0.00       0     66.6
  89   19:00   55.5    12    5.0   152      6.9    844     0.00       0     66.1
  89   19:10   56.3    12    5.6   152      7.3    844     0.00       0     65.7
  89   19:20   56.8    12    4.7   158      5.8    844     0.00       0     65.3
  89   19:30   56.2    12    3.8   156      6.4    844     0.00       0     65.0
  89   19:40   56.4    12    5.8   159      7.8    843     0.00       0     64.7
  89   19:50   56.5    12    4.9   161      6.8    843     0.00       0     64.4
  89   20:00   55.9    12    5.2   159      6.8    844     0.00       0     64.1
  89   20:10   55.8    12    4.9   157      6.8    845     0.00       0     63.8
  89   20:20   56.3    12    6.6   160      9.9    844     0.00       0     63.5
  89   20:30   55.6    12    4.1   215      8.2    844     0.00       0     63.2
  89   20:40   50.4    15    3.5   228      6.0    844     0.00       0     62.9
  89   20:50   49.9    15    5.0   236      7.1    844     0.00       0     62.7
  89   21:00   48.4    15    5.0   215      9.3    844     0.00       0     62.4
  89   21:10   49.2    15    3.5   184      5.2    844     0.00       0     62.1
  89   21:20   49.4    15    2.0   144      4.0    845     0.00       0     61.8
  89   21:30   50.5    15    3.9   184      5.3    846     0.00       0     61.6
  89   21:40   49.7    15    3.6   176      5.7    845     0.00       0     61.3
  89   21:50   49.6    15    4.6   193      7.4    845     0.00       0     61.1
  89   22:00   51.0    14    3.3   237      6.8    845     0.00       0     60.8
  89   22:10   46.4    17    3.0   210      5.7    845     0.00       0     60.6
  89   22:20   45.3    17    4.0   162      6.6    845     0.00       0     60.3
  89   22:30   47.7    16    3.1   179      4.7    844     0.00       0     60.0
  89   22:40   48.8    15    3.6   196      5.2    844     0.00       0     59.8
  89   22:50   48.1    15    4.9   184      7.5    844     0.00       0     59.5
  89   23:00   52.3    13    4.7   181      6.9    844     0.00       0     59.2
  89   23:10   55.5    12    3.7   194      9.2    844     0.00       0     59.0
  89   23:20   56.7    12    8.1   207     12.6    844     0.00       0     58.8
  89   23:30   57.2    13    7.6   191     10.7    844     0.00       0     58.7
  89   23:40   56.0    14    6.3   181      9.1    844     0.00       0     58.5
  89   23:50   53.6    15    2.6   173      5.0    844     0.00       0     58.4
  90    0:00   50.4    17    1.6   299      4.5    844     0.00       0     58.3
  90    0:10   53.0    17    4.2   268      5.8    843     0.00       0     58.1
  90    0:20   48.8    16    3.2   119      5.8    844     0.00       0     57.9
  90    0:30   45.3    17    2.7    64      3.3    843     0.00       0     57.8
  90    0:40   43.4    18    1.8     8      2.9    844     0.00       0     57.6
  90    0:50   42.2    19    2.4   295      4.1    844     0.00       0     57.4
  90    1:00   40.2    21    1.7   239      3.1    844     0.00       0     57.2
  90    1:10   40.0    22    1.1   247      3.1    844     0.00       0     56.9
  90    1:20   40.7    22    0.8   216      2.3    844     0.00       0     56.8
  90    1:30   41.8    22    1.6   165      3.4    844     0.00       0     56.6
  90    1:40   42.4    21    2.7   131      4.5    844     0.00       0     56.4
  90    1:50   42.3    20    3.6   126      4.9    844     0.00       0     56.2
  90    2:00   41.7    21    4.7   116      5.9    844     0.00       0     56.1
  90    2:10   41.4    21    2.4   120      5.0    844     0.00       0     55.9
  90    2:20   42.2    21    2.6   142      4.8    844     0.00       0     55.8
  90    2:30   45.8    19    4.4   124      6.8    844     0.00       0     55.6
  90    2:40   47.9    19    4.4   127      6.9    844     0.00       0     55.5
  90    2:50   48.4    18    2.5   108      4.2    843     0.00       0     55.3
  90    3:00   46.6    19    4.8    74      6.1    843     0.00       0     55.2
  90    3:10   46.1    20    2.3    80      5.5    843     0.00       0     55.1
  90    3:20   42.5    21    3.5   340      4.7    843     0.00       0     55.0
  90    3:30   41.0    22    2.9    17      4.9    843     0.00       0     54.9
  90    3:40   42.8    21    2.6    48      4.5    843     0.00       0     54.7
  90    3:50   44.1    20    2.1    32      3.2    843     0.00       0     54.6
  90    4:00   42.3    21    3.8    61      5.8    843     0.00       0     54.4
  90    4:10   39.5    23    4.6    78      6.4    844     0.00       0     54.3
  90    4:20   39.2    23    2.8    61      5.8    843     0.00       0     54.1
  90    4:30   40.1    23    2.8    72      3.9    843     0.00       0     53.9
  90    4:40   40.7    23    1.7    55      2.9    843     0.00       0     53.8
  90    4:50   40.9    23    1.4   140      3.1    843     0.00       0     53.6
  90    5:00   41.5    23    1.8   103      3.1    843     0.00       0     53.5
  90    5:10   39.7    24    2.6   352      4.8    843     0.00       0     53.3
  90    5:20   36.3    26    1.6   312      2.8    843     0.00       0     53.2
  90    5:30   38.3    26    1.5   305      3.7    843     0.00       1     53.0
  90    5:40   39.6    25    2.4   108      4.5    842     0.00       2     52.9
  90    5:50   39.6    25    2.2   125      4.4    842     0.00       7     52.7
  90    6:00   38.0    26    1.2   198      4.0    842     0.00      15     52.6
  90    6:10   37.1    27    1.2   204      3.4    842     0.00      27     52.4
  90    6:20   36.7    28    1.7   224      3.4    842     0.00      51     52.3
  90    6:30   37.8    28    1.4   222      3.2    842     0.00      94     52.2
  90    6:40   41.3    26    1.2   248      2.8    843     0.00     159     52.1
  90    6:50   44.1    24    1.6   144      2.7    843     0.00     135     52.1
  90    7:00   46.8    23    2.4    96      3.9    843     0.00     149     52.1
  90    7:10   48.3    22    4.3    42      6.4    843     0.00     148     52.3
  90    7:20   48.4    21    3.7    16      7.7    843     0.00     175     52.5
  90    7:30   50.8    21    5.2     4      8.9    843     0.00     289     52.7
  90    7:40   52.8    20    4.6   338     11.7    843     0.00     217     52.9
  90    7:50   58.3    20    7.3   223     13.4    843     0.00     247     53.2
  90    8:00   59.3    19    6.8   222     13.5    843     0.00     306     53.5
  90    8:10   62.2    18   10.1   198     18.3    843     0.00     384     53.9
  90    8:20   62.6    17   11.4   193     18.0    843     0.00     374     54.3
  90    8:30   62.6    18   11.4   197     16.3    844     0.00     380     54.9
  90    8:40   63.0    17   11.8   199     16.8    843     0.00     457     55.4
  90    8:50   63.4    17   11.6   194     17.0    844     0.00     350     55.9
  90    9:00   63.2    17   10.4   202     16.7    844     0.00     423     56.4
  90    9:10   64.6    15    9.6   213     17.4    844     0.00     586     56.9
  90    9:20   65.5    14   10.3   217     16.8    844     0.00     681     57.3
  90    9:30   65.7    14   11.8   228     18.9    844     0.00     710     57.9
  90    9:40   66.0    13   11.0   229     20.6    844     0.00     731     58.6
  90    9:50   66.1    12   10.7   234     16.4    844     0.00     753     59.3
  90   10:00   66.7    12   11.6   221     21.8    844     0.00     744     60.0
  90   10:10   67.1    11   14.2   206     23.1    843     0.00     789     60.7
  90   10:20   67.4    11   11.8   226     19.8    843     0.00     806     61.4
  90   10:30   67.8    10   13.3   222     20.9    843     0.00     825     62.1
  90   10:40   68.0    10   13.7   239     23.4    844     0.00     839     62.7
  90   10:50   68.1    10   12.4   239     20.2    844     0.00     851     63.4
  90   11:00   68.0    11   13.7   215     20.3    844     0.00     862     64.0
  90   11:10   68.9    11   11.9   228     18.9    843     0.00     872     64.4
  90   11:20   68.8    10   14.1   219     24.0    843     0.00     883     64.6
  90   11:30   69.1    10   12.3   220     19.1    843     0.00     889     64.5
  90   11:40   69.4     9   12.4   228     22.9    843     0.00     893     64.7
  90   11:50   69.3     9   14.9   221     23.1    843     0.00     900     65.2
  90   12:00   69.6     9   14.2   235     22.2    843     0.00     893     65.7
  90   12:10   69.5     9   15.3   236     25.5    843     0.00     892     66.1
  90   12:20   69.7     9   16.8   214     24.5    843     0.00     896     66.6
  90   12:30   69.5     9   18.0   212     28.4    843     0.00     887     67.2
  90   12:40   69.8     9   18.5   214     30.2    842     0.00     882     67.8
  90   12:50   70.1     8   16.9   210     26.8    842     0.00     873     68.4
  90   13:00   70.1     8   16.1   218     24.7    842     0.00     860     68.9
  90   13:10   70.0     7   14.8   222     27.6    842     0.00     852     69.3
  90   13:20   70.5     7   12.4   229     23.5    842     0.00     840     69.8
  90   13:30   70.6     6   15.5   244     29.9    842     0.00     824     70.2
  90   13:40   70.7     6   16.1   231     27.7    842     0.00     809     70.6
  90   13:50   70.0     6   17.2   236     26.7    842     0.00     792     70.9
  90   14:00   69.9     6   18.8   232     30.3    842     0.00     774     71.2
  90   14:10   69.7     6   16.4   243     28.6    842     0.00     753     71.3
  90   14:20   69.5     6   16.7   246     27.8    842     0.00     726     71.4
  90   14:30   69.5     6   14.4   243     26.9    841     0.00     705     71.5
  90   14:40   69.5     5   15.5   234     23.8    841     0.00     679     71.5
  90   14:50   69.6     5   15.2   229     28.1    841     0.00     639     71.5
  90   15:00   68.3     6   20.9   261     30.6    841     0.00     601     71.4
  90   15:10   67.9     7   19.1   257     28.5    841     0.00     578     71.3
  90   15:20   67.2     8   19.8   261     29.3    841     0.00     544     71.1
  90   15:30   66.7     7   19.7   254     31.6    842     0.00     524     70.9
  90   15:40   67.2     7   17.1   248     26.7    842     0.00     494     70.6
  90   15:50   66.3     7   17.2   252     25.7    842     0.00     439     70.2
  90   16:00   65.8     7   17.9   248     27.2    842     0.00     427     69.8
  90   16:10   65.2     7   17.0   249     26.8    842     0.00     385     69.4
  90   16:20   64.6     7   18.8   256     27.2    842     0.00     252     69.0
  90   16:30   64.6     6   18.2   255     29.1    842     0.00     280     68.7
  90   16:40   63.7     6   19.5   257     30.0    842     0.00     206     68.3
  90   16:50   63.4     6   16.2   249     26.4    842     0.00     124     68.0
  90   17:00   62.9     6   16.7   250     27.0    842     0.00     125     67.7
  90   17:10   62.3     5   13.1   240     22.4    842     0.00      92     67.4
  90   17:20   61.8     7   14.6   250     21.9    842     0.00      82     67.0
  90   17:30   60.9     8   13.0   254     19.4    842     0.00      88     66.7
  90   17:40   60.0     8   12.9   253     19.6    842     0.00      62     66.4
  90   17:50   59.1     8   12.7   254     20.6    842     0.00      35     66.1
  90   18:00   58.0     9   10.1   256     16.2    842     0.00      18     65.7
  90   18:10   57.0     9    8.9   260     13.8    842     0.00       9     65.4
  90   18:20   56.4    10   12.8   275     21.8    842     0.00       3     65.0

Return to Carson Sink graphs page.


Western Regional Climate Center,wrcc@dri.edu